createdAt,value
2019-06-08T00:01:00.979Z,28.40
2019-06-08T00:03:33.172Z,28.40
2019-06-08T00:06:05.454Z,28.50
2019-06-08T00:08:38.021Z,28.50
2019-06-08T00:11:09.905Z,28.50
2019-06-08T00:13:42.053Z,28.60
2019-06-08T00:16:15.314Z,28.60
2019-06-08T00:18:47.594Z,28.60
2019-06-08T00:21:20.091Z,28.60
2019-06-08T00:23:52.977Z,28.60
2019-06-08T00:26:25.478Z,28.60
2019-06-08T00:28:57.808Z,28.70
2019-06-08T00:31:30.550Z,28.60
2019-06-08T00:34:02.445Z,28.60
2019-06-08T00:36:34.687Z,28.60
2019-06-08T00:39:10.964Z,28.70
2019-06-08T00:41:43.018Z,28.70
2019-06-08T00:44:15.258Z,28.70
2019-06-08T00:46:47.900Z,28.70
2019-06-08T00:49:20.572Z,28.70
2019-06-08T00:51:52.892Z,28.80
2019-06-08T00:54:25.787Z,28.80
2019-06-08T00:56:57.939Z,28.90
2019-06-08T00:59:30.450Z,29.00
2019-06-08T01:02:03.120Z,29.00
2019-06-08T01:04:35.236Z,29.10
2019-06-08T01:07:07.330Z,29.20
2019-06-08T01:09:39.798Z,29.30
2019-06-08T01:12:11.875Z,29.30
2019-06-08T01:14:44.067Z,29.30
2019-06-08T01:17:16.619Z,29.40
2019-06-08T01:19:49.835Z,29.50
2019-06-08T01:22:23.661Z,29.50
2019-06-08T01:24:56.312Z,29.50
2019-06-08T01:27:28.585Z,29.60
2019-06-08T01:30:00.864Z,29.60
2019-06-08T01:32:33.485Z,29.60
2019-06-08T01:35:07.252Z,29.70
2019-06-08T01:37:39.395Z,29.70
2019-06-08T01:40:11.976Z,29.70
2019-06-08T01:42:44.194Z,29.70
2019-06-08T01:45:18.438Z,29.70
2019-06-08T01:47:50.659Z,29.80
2019-06-08T01:50:22.676Z,29.80
2019-06-08T01:52:55.044Z,29.80
2019-06-08T01:55:27.092Z,29.80
2019-06-08T01:57:59.518Z,29.90
2019-06-08T02:00:40.581Z,29.90
2019-06-08T02:03:07.802Z,30.00
2019-06-08T02:05:43.402Z,30.00
2019-06-08T02:08:18.678Z,30.10
2019-06-08T02:10:50.922Z,30.10
2019-06-08T02:13:23.155Z,30.10
2019-06-08T02:15:55.586Z,30.10
2019-06-08T02:18:50.828Z,30.20
2019-06-08T02:21:20.579Z,30.20
2019-06-08T02:24:01.990Z,30.20
2019-06-08T02:26:35.047Z,30.30
2019-06-08T02:29:08.496Z,30.30
2019-06-08T02:31:43.357Z,30.40
2019-06-08T02:34:15.681Z,30.40
2019-06-08T02:36:48.056Z,30.40
2019-06-08T02:39:20.791Z,30.50
2019-06-08T02:41:52.873Z,30.50
2019-06-08T02:44:24.841Z,30.60
2019-06-08T02:47:21.412Z,30.60
2019-06-08T02:49:53.710Z,30.70
2019-06-08T02:52:26.877Z,30.80
2019-06-08T02:54:59.927Z,30.80
2019-06-08T02:57:36.071Z,30.90
2019-06-08T03:00:31.447Z,30.90
2019-06-08T03:03:05.568Z,31.00
2019-06-08T03:05:40.481Z,31.00
2019-06-08T03:08:26.285Z,31.10
2019-06-08T03:10:59.009Z,31.10
2019-06-08T03:13:33.922Z,31.20
2019-06-08T03:16:06.979Z,31.20
2019-06-08T03:18:40.245Z,31.30
2019-06-08T03:21:16.762Z,31.40
2019-06-08T03:23:49.547Z,31.50
2019-06-08T03:26:21.809Z,31.60
2019-06-08T03:28:54.303Z,31.80
2019-06-08T03:31:27.053Z,31.90
2019-06-08T03:33:59.750Z,32.00
2019-06-08T03:36:34.981Z,32.10
2019-06-08T03:39:06.880Z,32.10
2019-06-08T03:41:40.424Z,32.20
2019-06-08T03:44:13.215Z,32.40
2019-06-08T03:46:45.980Z,32.50
2019-06-08T03:49:50.715Z,32.50
2019-06-08T03:52:31.305Z,32.60
2019-06-08T03:55:03.563Z,32.70
2019-06-08T03:57:42.162Z,32.80
2019-06-08T04:00:23.617Z,32.90
2019-06-08T04:02:55.457Z,32.90
2019-06-08T04:05:27.450Z,33.00
2019-06-08T04:08:00.343Z,33.10
2019-06-08T04:10:32.786Z,33.20
2019-06-08T04:13:04.764Z,33.20
2019-06-08T04:15:37.988Z,33.20
2019-06-08T04:18:10.433Z,33.30
2019-06-08T04:20:45.515Z,33.30
2019-06-08T04:23:35.237Z,33.20
2019-06-08T04:26:07.952Z,33.20
2019-06-08T04:28:40.575Z,33.20
2019-06-08T04:31:13.924Z,33.20
2019-06-08T04:33:47.592Z,33.30
2019-06-08T04:36:19.997Z,33.40
2019-06-08T04:38:53.221Z,33.60
2019-06-08T04:41:25.421Z,33.70
2019-06-08T04:44:01.903Z,33.70
2019-06-08T04:46:43.266Z,33.70
2019-06-08T04:49:15.063Z,33.80
2019-06-08T04:51:49.381Z,33.90
2019-06-08T04:54:21.047Z,34.10
2019-06-08T04:56:54.519Z,34.20
2019-06-08T04:59:26.439Z,34.30
2019-06-08T05:01:58.454Z,34.50
2019-06-08T05:04:31.577Z,34.70
2019-06-08T05:07:04.572Z,34.80
2019-06-08T05:09:36.840Z,35.00
2019-06-08T05:12:09.101Z,35.20
2019-06-08T05:15:02.797Z,35.40
2019-06-08T05:17:35.241Z,35.50
2019-06-08T05:20:09.453Z,35.60
2019-06-08T05:22:41.570Z,35.70
2019-06-08T05:25:13.907Z,35.80
2019-06-08T05:27:47.343Z,35.90
2019-06-08T05:30:20.717Z,36.10
2019-06-08T05:32:53.805Z,36.20
2019-06-08T05:35:25.921Z,36.30
2019-06-08T05:37:57.904Z,36.30
2019-06-08T05:40:29.599Z,36.40
2019-06-08T05:43:21.513Z,36.50
2019-06-08T05:45:54.976Z,36.60
2019-06-08T05:48:27.004Z,36.60
2019-06-08T05:51:19.199Z,36.70
2019-06-08T05:53:51.708Z,36.60
2019-06-08T05:56:23.870Z,36.50
2019-06-08T05:58:55.806Z,36.50
2019-06-08T06:01:28.215Z,36.50
2019-06-08T06:04:00.257Z,36.50
2019-06-08T06:06:32.412Z,36.60
2019-06-08T06:09:05.588Z,36.60
2019-06-08T06:11:37.647Z,36.70
2019-06-08T06:14:11.940Z,36.80
2019-06-08T06:16:44.920Z,36.90
2019-06-08T06:19:16.627Z,36.90
2019-06-08T06:21:49.237Z,37.00
2019-06-08T06:24:21.217Z,37.10
2019-06-08T06:26:53.595Z,37.10
2019-06-08T06:29:25.489Z,37.20
2019-06-08T06:32:17.731Z,37.20
2019-06-08T06:34:49.944Z,37.20
2019-06-08T06:37:22.000Z,37.20
2019-06-08T06:39:54.049Z,37.20
2019-06-08T06:42:26.292Z,37.30
2019-06-08T06:44:58.254Z,37.40
2019-06-08T06:47:32.546Z,37.40
2019-06-08T06:50:11.471Z,37.50
2019-06-08T06:52:44.642Z,37.50
2019-06-08T06:55:20.121Z,37.40
2019-06-08T06:57:53.556Z,37.30
2019-06-08T07:00:29.143Z,37.30
2019-06-08T07:03:03.544Z,37.20
2019-06-08T07:05:35.551Z,37.20
2019-06-08T07:08:07.817Z,37.30
2019-06-08T07:10:41.744Z,37.30
2019-06-08T07:13:13.653Z,37.30
2019-06-08T07:15:46.980Z,37.30
2019-06-08T07:18:39.853Z,37.30
2019-06-08T07:21:13.128Z,37.40
2019-06-08T07:23:46.169Z,37.40
2019-06-08T07:26:18.789Z,37.40
2019-06-08T07:28:52.428Z,37.40
2019-06-08T07:31:25.088Z,37.40
2019-06-08T07:33:58.000Z,37.40
2019-06-08T07:36:31.701Z,37.50
2019-06-08T07:39:04.371Z,37.60
2019-06-08T07:41:37.072Z,37.60
2019-06-08T07:44:09.096Z,37.60
2019-06-08T07:46:41.904Z,37.60
2019-06-08T07:49:14.772Z,37.60
2019-06-08T07:51:58.667Z,37.60
2019-06-08T07:54:21.458Z,37.60
2019-06-08T07:56:54.835Z,37.70
2019-06-08T07:59:27.257Z,37.80
2019-06-08T08:01:59.667Z,37.80
2019-06-08T08:04:31.773Z,37.90
2019-06-08T08:07:03.950Z,38.00
2019-06-08T08:09:35.947Z,38.00
2019-06-08T08:12:12.035Z,38.00
2019-06-08T08:14:42.048Z,37.90
2019-06-08T08:17:14.309Z,37.80
2019-06-08T08:19:47.028Z,37.70
2019-06-08T08:22:26.195Z,37.70
2019-06-08T08:25:18.062Z,37.70
2019-06-08T08:27:50.338Z,37.70
2019-06-08T08:30:23.924Z,37.70
2019-06-08T08:33:18.402Z,37.80
2019-06-08T08:35:52.160Z,37.80
2019-06-08T08:38:24.285Z,37.90
2019-06-08T08:41:03.834Z,37.80
2019-06-08T08:43:30.493Z,37.80
2019-06-08T08:46:05.040Z,37.80
2019-06-08T08:48:37.725Z,37.80
2019-06-08T08:51:10.703Z,37.80
2019-06-08T08:53:43.347Z,37.90
2019-06-08T08:56:15.578Z,37.90
2019-06-08T08:58:48.187Z,37.90
2019-06-08T09:01:20.611Z,37.90
2019-06-08T09:03:56.011Z,38.00
2019-06-08T09:06:27.953Z,37.90
2019-06-08T09:09:03.257Z,37.90
2019-06-08T09:11:33.826Z,37.80
2019-06-08T09:14:12.563Z,37.80
2019-06-08T09:16:40.081Z,37.80
2019-06-08T09:19:12.260Z,37.70
2019-06-08T09:21:44.301Z,37.70
2019-06-08T09:24:18.565Z,37.60
2019-06-08T09:26:52.344Z,37.60
2019-06-08T09:29:24.575Z,37.50
2019-06-08T09:31:59.061Z,37.40
2019-06-08T09:34:33.803Z,37.40
2019-06-08T09:37:18.678Z,37.40
2019-06-08T09:39:50.504Z,37.30
2019-06-08T09:42:22.897Z,37.20
2019-06-08T09:45:00.097Z,37.10
2019-06-08T09:47:29.770Z,37.00
2019-06-08T09:50:04.484Z,37.00
2019-06-08T09:52:41.023Z,36.90
2019-06-08T09:55:11.943Z,36.90
2019-06-08T09:57:43.754Z,36.70
2019-06-08T10:00:21.334Z,36.60
2019-06-08T10:02:51.209Z,36.50
2019-06-08T10:05:23.239Z,36.40
2019-06-08T10:07:58.717Z,36.30
2019-06-08T10:10:29.247Z,36.30
2019-06-08T10:13:21.645Z,36.20
2019-06-08T10:15:55.189Z,36.10
2019-06-08T10:18:32.961Z,36.00
2019-06-08T10:21:06.179Z,35.90
2019-06-08T10:23:41.609Z,35.80
2019-06-08T10:26:13.765Z,35.70
2019-06-08T10:28:48.276Z,35.60
2019-06-08T10:31:19.279Z,35.40
2019-06-08T10:33:51.857Z,35.30
2019-06-08T10:36:23.968Z,35.20
2019-06-08T10:38:56.749Z,35.10
2019-06-08T10:41:29.828Z,35.00
2019-06-08T10:44:01.556Z,35.00
2019-06-08T10:46:43.109Z,34.90
2019-06-08T10:49:18.352Z,34.90
2019-06-08T10:51:49.369Z,34.90
2019-06-08T10:54:40.684Z,34.80
2019-06-08T10:57:14.051Z,34.80
2019-06-08T10:59:48.583Z,34.80
2019-06-08T11:02:20.314Z,34.80
2019-06-08T11:04:52.441Z,34.80
2019-06-08T11:07:24.532Z,34.70
2019-06-08T11:09:58.660Z,34.70
2019-06-08T11:12:31.076Z,34.70
2019-06-08T11:15:03.620Z,34.70
2019-06-08T11:17:37.876Z,34.60
2019-06-08T11:20:13.221Z,34.60
2019-06-08T11:22:44.399Z,34.60
2019-06-08T11:25:19.761Z,34.50
2019-06-08T11:27:50.714Z,34.40
2019-06-08T11:30:27.157Z,34.30
2019-06-08T11:32:57.746Z,34.20
2019-06-08T11:35:30.218Z,34.10
2019-06-08T11:38:02.300Z,34.00
2019-06-08T11:40:34.793Z,33.80
2019-06-08T11:43:08.505Z,33.80
2019-06-08T11:45:40.660Z,33.60
2019-06-08T11:48:13.106Z,33.60
2019-06-08T11:50:45.641Z,33.50
2019-06-08T11:53:38.443Z,33.40
2019-06-08T11:56:13.319Z,33.30
2019-06-08T11:59:05.753Z,33.20
2019-06-08T12:01:37.914Z,33.10
2019-06-08T12:04:10.186Z,33.10
2019-06-08T12:06:42.321Z,33.00
2019-06-08T12:09:14.774Z,32.90
2019-06-08T12:11:48.055Z,32.90
2019-06-08T12:14:20.424Z,32.80
2019-06-08T12:16:52.204Z,32.80
2019-06-08T12:19:24.375Z,32.70
2019-06-08T12:21:57.980Z,32.60
2019-06-08T12:24:41.422Z,32.50
2019-06-08T12:27:18.669Z,32.50
2019-06-08T12:29:37.653Z,32.50
2019-06-08T12:32:12.070Z,32.40
2019-06-08T12:34:43.458Z,32.40
2019-06-08T12:37:21.303Z,32.40
2019-06-08T12:39:49.478Z,32.30
2019-06-08T12:42:41.595Z,32.30
2019-06-08T12:45:15.361Z,32.30
2019-06-08T12:47:48.153Z,32.20
2019-06-08T12:50:20.386Z,32.20
2019-06-08T12:52:52.307Z,32.20
2019-06-08T12:55:25.618Z,32.10
2019-06-08T12:57:58.224Z,32.10
2019-06-08T13:00:31.125Z,32.10
2019-06-08T13:03:03.585Z,32.00
2019-06-08T13:05:37.818Z,32.00
2019-06-08T13:08:10.528Z,32.00
2019-06-08T13:10:43.778Z,31.90
2019-06-08T13:13:19.106Z,31.90
2019-06-08T13:15:49.762Z,31.90
2019-06-08T13:18:22.359Z,31.90
2019-06-08T13:20:54.578Z,31.90
2019-06-08T13:23:28.315Z,31.90
2019-06-08T13:26:00.414Z,31.80
2019-06-08T13:28:32.506Z,31.90
2019-06-08T13:31:04.795Z,31.80
2019-06-08T13:33:38.411Z,31.80
2019-06-08T13:36:10.536Z,31.80
2019-06-08T13:38:51.659Z,31.80
2019-06-08T13:41:26.514Z,31.80
2019-06-08T13:43:58.471Z,31.80
2019-06-08T13:46:30.405Z,31.70
2019-06-08T13:49:02.282Z,31.70
2019-06-08T13:51:34.619Z,31.70
2019-06-08T13:54:08.496Z,31.70
2019-06-08T13:56:40.938Z,31.60
2019-06-08T13:59:14.264Z,31.60
2019-06-08T14:01:49.863Z,31.60
2019-06-08T14:04:22.545Z,31.60
2019-06-08T14:06:58.113Z,31.50
2019-06-08T14:09:31.540Z,31.50
2019-06-08T14:12:03.835Z,31.50
2019-06-08T14:14:39.630Z,31.40
2019-06-08T14:17:10.276Z,31.40
2019-06-08T14:19:42.551Z,31.30
2019-06-08T14:22:14.503Z,31.40
2019-06-08T14:24:47.855Z,31.30
2019-06-08T14:27:21.301Z,31.30
2019-06-08T14:29:53.822Z,31.30
2019-06-08T14:32:25.979Z,31.20
2019-06-08T14:34:58.366Z,31.20
2019-06-08T14:37:30.708Z,31.20
2019-06-08T14:40:02.816Z,31.20
2019-06-08T14:42:34.663Z,31.10
2019-06-08T14:45:11.080Z,31.10
2019-06-08T14:47:43.460Z,31.10
2019-06-08T14:50:21.108Z,31.00
2019-06-08T14:52:52.753Z,31.00
2019-06-08T14:55:25.074Z,31.00
2019-06-08T14:57:57.998Z,31.00
2019-06-08T15:00:30.370Z,30.90
2019-06-08T15:03:02.631Z,30.90
2019-06-08T15:05:36.549Z,30.90
2019-06-08T15:08:09.008Z,30.80
2019-06-08T15:10:41.286Z,30.80
2019-06-08T15:13:13.499Z,30.80
2019-06-08T15:15:45.901Z,30.80
2019-06-08T15:18:18.545Z,30.80
2019-06-08T15:20:51.824Z,30.80
2019-06-08T15:23:24.819Z,30.70
2019-06-08T15:25:58.231Z,30.70
2019-06-08T15:28:35.773Z,30.70
2019-06-08T15:31:04.614Z,30.70
2019-06-08T15:33:38.336Z,30.70
2019-06-08T15:36:10.659Z,30.60
2019-06-08T15:38:43.521Z,30.70
2019-06-08T15:41:20.789Z,30.70
2019-06-08T15:43:49.207Z,30.60
2019-06-08T15:46:22.346Z,30.60
2019-06-08T15:48:54.592Z,30.60
2019-06-08T15:51:29.896Z,30.60
2019-06-08T15:54:00.656Z,30.60
2019-06-08T15:56:45.758Z,30.60
2019-06-08T15:59:08.857Z,30.60
2019-06-08T16:01:40.407Z,30.50
2019-06-08T16:04:12.400Z,30.50
2019-06-08T16:06:44.493Z,30.50
2019-06-08T16:09:16.646Z,30.50
2019-06-08T16:11:52.753Z,30.40
2019-06-08T16:14:26.591Z,30.40
2019-06-08T16:16:58.799Z,30.40
2019-06-08T16:19:31.889Z,30.40
2019-06-08T16:22:03.991Z,30.40
2019-06-08T16:24:36.523Z,30.40
2019-06-08T16:27:08.841Z,30.40
2019-06-08T16:29:40.681Z,30.40
2019-06-08T16:32:13.234Z,30.50
2019-06-08T16:34:45.417Z,30.40
2019-06-08T16:37:17.382Z,30.40
2019-06-08T16:39:49.480Z,30.40
2019-06-08T16:42:21.551Z,30.40
2019-06-08T16:44:53.475Z,30.30
2019-06-08T16:47:27.032Z,30.30
2019-06-08T16:49:59.140Z,30.20
2019-06-08T16:52:32.449Z,30.20
2019-06-08T16:55:05.629Z,30.20
2019-06-08T16:57:39.824Z,30.10
2019-06-08T17:00:42.197Z,30.10
2019-06-08T17:02:45.571Z,30.10
2019-06-08T17:05:17.986Z,30.00
2019-06-08T17:07:50.261Z,30.00
2019-06-08T17:10:22.427Z,29.90
2019-06-08T17:12:54.491Z,29.90
2019-06-08T17:15:26.619Z,29.80
2019-06-08T17:17:58.850Z,29.80
2019-06-08T17:20:31.987Z,29.80
2019-06-08T17:23:04.178Z,29.80
2019-06-08T17:25:36.607Z,29.70
2019-06-08T17:28:08.919Z,29.70
2019-06-08T17:30:41.482Z,29.60
2019-06-08T17:33:13.899Z,29.60
2019-06-08T17:35:46.648Z,29.50
2019-06-08T17:38:18.870Z,29.50
2019-06-08T17:40:51.155Z,29.40
2019-06-08T17:43:23.459Z,29.40
2019-06-08T17:45:55.498Z,29.40
2019-06-08T17:48:27.993Z,29.40
2019-06-08T17:51:00.109Z,29.40
2019-06-08T17:53:32.774Z,29.30
2019-06-08T17:56:05.092Z,29.30
2019-06-08T17:58:37.774Z,29.30
2019-06-08T18:01:09.765Z,29.30
2019-06-08T18:03:43.065Z,29.20
2019-06-08T18:06:17.840Z,29.20
2019-06-08T18:08:49.542Z,29.20
2019-06-08T18:11:21.788Z,29.20
2019-06-08T18:13:53.810Z,29.10
2019-06-08T18:16:27.887Z,29.10
2019-06-08T18:19:00.025Z,29.10
2019-06-08T18:21:32.524Z,29.10
2019-06-08T18:24:04.728Z,29.00
2019-06-08T18:26:38.805Z,29.00
2019-06-08T18:29:10.889Z,29.00
2019-06-08T18:31:44.002Z,29.00
2019-06-08T18:34:17.800Z,29.00
2019-06-08T18:36:50.290Z,28.90
2019-06-08T18:39:22.756Z,28.90
2019-06-08T18:41:58.221Z,28.90
2019-06-08T18:44:29.302Z,28.80
2019-06-08T18:47:01.530Z,28.80
2019-06-08T18:49:35.227Z,28.80
2019-06-08T18:52:08.095Z,28.80
2019-06-08T18:54:41.626Z,28.70
2019-06-08T18:57:14.162Z,28.70
2019-06-08T18:59:50.953Z,28.70
2019-06-08T19:02:20.221Z,28.70
2019-06-08T19:04:52.631Z,28.70
2019-06-08T19:07:24.624Z,28.70
2019-06-08T19:09:59.996Z,28.60
2019-06-08T19:12:32.153Z,28.60
2019-06-08T19:15:11.127Z,28.60
2019-06-08T19:17:43.903Z,28.60
2019-06-08T19:20:13.404Z,28.60
2019-06-08T19:22:51.942Z,28.60
2019-06-08T19:25:19.801Z,28.50
2019-06-08T19:27:53.283Z,28.50
2019-06-08T19:30:28.141Z,28.50
2019-06-08T19:32:59.516Z,28.50
2019-06-08T19:35:32.908Z,28.50
2019-06-08T19:38:07.433Z,28.50
2019-06-08T19:40:40.664Z,28.40
2019-06-08T19:43:13.128Z,28.40
2019-06-08T19:45:46.409Z,28.40
2019-06-08T19:48:19.366Z,28.40
2019-06-08T19:50:54.375Z,28.40
2019-06-08T19:53:28.276Z,28.40
2019-06-08T19:56:00.150Z,28.40
2019-06-08T19:58:32.305Z,28.30
2019-06-08T20:01:04.166Z,28.40
2019-06-08T20:03:37.858Z,28.30
2019-06-08T20:06:10.339Z,28.30
2019-06-08T20:08:42.950Z,28.30
2019-06-08T20:11:17.299Z,28.30
2019-06-08T20:13:50.424Z,28.30
2019-06-08T20:16:22.767Z,28.30
2019-06-08T20:18:57.597Z,28.30
2019-06-08T20:21:28.464Z,28.30
2019-06-08T20:24:10.510Z,28.30
2019-06-08T20:26:42.517Z,28.30
2019-06-08T20:29:16.450Z,28.20
2019-06-08T20:31:51.469Z,28.20
2019-06-08T20:34:22.526Z,28.20
2019-06-08T20:36:54.583Z,28.20
2019-06-08T20:39:27.310Z,28.20
2019-06-08T20:41:59.522Z,28.20
2019-06-08T20:44:31.442Z,28.20
2019-06-08T20:47:03.404Z,28.20
2019-06-08T20:49:37.241Z,28.20
2019-06-08T20:52:10.031Z,28.10
2019-06-08T20:54:42.827Z,28.10
2019-06-08T20:57:16.980Z,28.10
2019-06-08T20:59:50.670Z,28.10
2019-06-08T21:02:22.762Z,28.10
2019-06-08T21:04:56.270Z,28.10
2019-06-08T21:07:28.636Z,28.10
2019-06-08T21:10:00.945Z,28.10
2019-06-08T21:12:33.049Z,28.10
2019-06-08T21:15:07.052Z,28.10
2019-06-08T21:17:40.088Z,28.10
2019-06-08T21:20:12.444Z,28.10
2019-06-08T21:22:46.028Z,28.10
2019-06-08T21:25:18.646Z,28.10
2019-06-08T21:27:51.439Z,28.10
2019-06-08T21:30:25.181Z,28.10
2019-06-08T21:33:00.685Z,28.00
2019-06-08T21:35:31.307Z,28.10
2019-06-08T21:38:17.027Z,28.10
2019-06-08T21:40:37.642Z,28.10
2019-06-08T21:43:09.871Z,28.00
2019-06-08T21:45:42.245Z,28.00
2019-06-08T21:48:14.724Z,28.00
2019-06-08T21:50:48.968Z,28.00
2019-06-08T21:53:21.056Z,28.00
2019-06-08T21:55:54.180Z,28.00
2019-06-08T21:58:27.173Z,28.00
2019-06-08T22:01:01.052Z,28.00
2019-06-08T22:03:33.401Z,28.00
2019-06-08T22:06:07.855Z,28.00
2019-06-08T22:08:39.355Z,27.90
2019-06-08T22:11:11.361Z,27.90
2019-06-08T22:13:43.604Z,28.00
2019-06-08T22:16:35.005Z,28.00
2019-06-08T22:19:07.603Z,28.00
2019-06-08T22:22:01.689Z,27.90
2019-06-08T22:24:32.843Z,27.90
2019-06-08T22:27:07.044Z,27.90
2019-06-08T22:29:38.588Z,27.90
2019-06-08T22:32:10.962Z,27.90
2019-06-08T22:34:43.015Z,27.80
2019-06-08T22:37:15.125Z,27.80
2019-06-08T22:39:47.956Z,27.80
2019-06-08T22:42:20.124Z,27.80
2019-06-08T22:44:52.728Z,27.70
2019-06-08T22:47:27.161Z,27.80
2019-06-08T22:50:00.403Z,27.80
2019-06-08T22:52:33.149Z,27.80
2019-06-08T22:55:10.082Z,27.80
2019-06-08T22:57:39.784Z,27.80
2019-06-08T23:00:17.481Z,27.80
2019-06-08T23:02:48.555Z,27.80
2019-06-08T23:05:20.365Z,27.80
2019-06-08T23:07:54.746Z,27.80
2019-06-08T23:10:26.406Z,27.70
2019-06-08T23:13:00.779Z,27.80
2019-06-08T23:15:32.354Z,27.70
2019-06-08T23:18:06.639Z,27.70
2019-06-08T23:20:38.163Z,27.70
2019-06-08T23:23:10.642Z,27.70
2019-06-08T23:25:44.030Z,27.70
2019-06-08T23:28:37.551Z,27.70
2019-06-08T23:31:20.746Z,27.70
2019-06-08T23:33:42.614Z,27.70
2019-06-08T23:36:46.042Z,27.80
2019-06-08T23:38:48.681Z,27.80
2019-06-08T23:41:20.903Z,27.80
2019-06-08T23:43:53.001Z,27.80
2019-06-08T23:46:27.409Z,27.90
2019-06-08T23:49:01.827Z,27.90
2019-06-08T23:51:32.917Z,27.90
2019-06-08T23:54:06.400Z,27.90
2019-06-08T23:56:39.131Z,27.90
2019-06-08T23:59:11.355Z,27.90
